createdAt,value
2019-05-01T00:00:16.430Z,1.00
2019-05-01T00:03:13.542Z,1.00
2019-05-01T00:05:44.417Z,1.00
2019-05-01T00:08:12.787Z,1.00
2019-05-01T00:10:39.950Z,1.00
2019-05-01T00:13:17.926Z,1.00
2019-05-01T00:15:45.206Z,1.00
2019-05-01T00:18:13.377Z,1.00
2019-05-01T00:20:41.366Z,1.00
2019-05-01T00:23:09.650Z,1.00
2019-05-01T00:25:37.843Z,1.00
2019-05-01T00:28:06.151Z,1.00
2019-05-01T00:30:35.282Z,1.00
2019-05-01T00:33:03.725Z,1.00
2019-05-01T00:35:31.091Z,1.00
2019-05-01T00:37:58.156Z,1.00
2019-05-01T00:40:25.536Z,1.00
2019-05-01T00:42:52.634Z,1.00
2019-05-01T00:45:19.614Z,1.00
2019-05-01T00:47:49.009Z,1.00
2019-05-01T00:50:18.319Z,1.00
2019-05-01T00:52:50.041Z,1.00
2019-05-01T00:55:36.637Z,1.00
2019-05-01T00:58:15.863Z,1.00
2019-05-01T01:01:03.741Z,1.00
2019-05-01T01:03:32.074Z,1.00
2019-05-01T01:06:00.136Z,1.00
2019-05-01T01:08:33.278Z,1.00
2019-05-01T01:11:01.202Z,1.00
2019-05-01T01:13:28.141Z,1.00
2019-05-01T01:15:55.334Z,1.00
2019-05-01T01:18:22.298Z,1.00
2019-05-01T01:20:50.577Z,1.00
2019-05-01T01:23:18.855Z,1.00
2019-05-01T01:25:47.080Z,1.00
2019-05-01T01:28:19.814Z,1.00
2019-05-01T01:30:56.092Z,1.00
2019-05-01T01:33:18.824Z,1.00
2019-05-01T01:35:47.510Z,1.00
2019-05-01T01:38:16.626Z,1.00
2019-05-01T01:40:45.074Z,1.00
2019-05-01T01:43:38.814Z,1.00
2019-05-01T01:46:09.219Z,1.00
2019-05-01T01:48:37.346Z,1.00
2019-05-01T01:51:04.869Z,1.00
2019-05-01T01:53:33.694Z,1.00
2019-05-01T01:56:02.175Z,1.00
2019-05-01T01:58:30.659Z,1.00
2019-05-01T02:01:37.845Z,1.00
2019-05-01T02:04:16.013Z,1.00
2019-05-01T02:06:44.753Z,1.00
2019-05-01T02:09:12.934Z,1.00
2019-05-01T02:11:41.085Z,1.00
2019-05-01T02:14:19.711Z,1.00
2019-05-01T02:16:53.577Z,1.00
2019-05-01T02:19:21.739Z,1.00
2019-05-01T02:21:48.806Z,1.00
2019-05-01T02:24:16.147Z,1.00
2019-05-01T02:26:50.832Z,1.00
2019-05-01T02:29:24.831Z,1.00
2019-05-01T02:31:54.896Z,1.00
2019-05-01T02:34:24.771Z,1.00
2019-05-01T02:36:56.133Z,1.00
2019-05-01T02:39:25.117Z,1.00
2019-05-01T02:42:14.608Z,1.00
2019-05-01T02:44:48.196Z,1.00
2019-05-01T02:47:24.848Z,1.00
2019-05-01T02:49:57.087Z,1.00
2019-05-01T02:52:32.364Z,1.00
2019-05-01T02:55:05.058Z,1.00
2019-05-01T02:57:35.636Z,1.00
2019-05-01T03:00:07.286Z,1.00
2019-05-01T03:02:37.196Z,1.00
2019-05-01T03:05:06.856Z,1.00
2019-05-01T03:07:37.123Z,1.00
2019-05-01T03:10:09.160Z,1.00
2019-05-01T03:12:38.925Z,1.00
2019-05-01T03:15:06.839Z,1.00
2019-05-01T03:17:58.042Z,1.00
2019-05-01T03:20:32.592Z,1.00
2019-05-01T03:23:29.671Z,1.00
2019-05-01T03:25:58.066Z,1.00
2019-05-01T03:28:29.134Z,1.00
2019-05-01T03:30:57.684Z,1.00
2019-05-01T03:33:26.199Z,1.00
2019-05-01T03:35:54.661Z,1.00
2019-05-01T03:38:23.879Z,1.00
2019-05-01T03:40:52.871Z,1.00
2019-05-01T03:43:21.394Z,1.00
2019-05-01T03:45:50.766Z,1.00
2019-05-01T03:48:19.945Z,1.00
2019-05-01T03:50:47.641Z,1.00
2019-05-01T03:53:16.447Z,1.00
2019-05-01T03:55:48.007Z,1.00
2019-05-01T03:58:17.350Z,1.00
2019-05-01T04:00:56.274Z,1.00
2019-05-01T04:03:35.919Z,1.00
2019-05-01T04:06:12.495Z,1.00
2019-05-01T04:08:40.912Z,1.00
2019-05-01T04:11:10.585Z,1.00
2019-05-01T04:13:38.590Z,1.00
2019-05-01T04:16:06.528Z,1.00
2019-05-01T04:18:34.350Z,1.00
2019-05-01T04:21:03.078Z,1.00
2019-05-01T04:23:33.656Z,1.00
2019-05-01T04:26:02.114Z,1.00
2019-05-01T04:28:40.407Z,1.00
2019-05-01T04:31:26.974Z,1.00
2019-05-01T04:33:57.235Z,1.00
2019-05-01T04:36:31.266Z,1.00
2019-05-01T04:38:59.523Z,1.00
2019-05-01T04:41:26.583Z,1.00
2019-05-01T04:43:53.742Z,1.00
2019-05-01T04:46:21.066Z,1.40
2019-05-01T04:48:49.605Z,1.60
2019-05-01T04:51:18.183Z,4.00
2019-05-01T04:53:46.727Z,9.80
2019-05-01T04:56:15.026Z,9.10
2019-05-01T04:58:43.766Z,8.70
2019-05-01T05:01:12.677Z,8.70
2019-05-01T05:03:41.819Z,7.70
2019-05-01T05:06:11.066Z,7.40
2019-05-01T05:08:38.938Z,10.10
2019-05-01T05:11:11.923Z,8.30
2019-05-01T05:13:47.203Z,7.30
2019-05-01T05:16:22.611Z,6.80
2019-05-01T05:18:51.149Z,5.30
2019-05-01T05:21:19.779Z,8.20
2019-05-01T05:23:48.872Z,7.60
2019-05-01T05:26:17.190Z,7.30
2019-05-01T05:28:47.778Z,6.90
2019-05-01T05:31:18.741Z,6.80
2019-05-01T05:33:48.092Z,9.20
2019-05-01T05:36:16.315Z,7.70
2019-05-01T05:39:01.054Z,6.70
2019-05-01T05:41:30.254Z,7.70
2019-05-01T05:43:58.555Z,6.00
2019-05-01T05:46:28.757Z,4.30
2019-05-01T05:48:56.919Z,4.30
2019-05-01T05:51:37.506Z,4.20
2019-05-01T05:54:29.629Z,4.20
2019-05-01T05:57:01.773Z,3.80
2019-05-01T05:59:33.795Z,3.00
2019-05-01T06:02:29.790Z,3.30
2019-05-01T06:05:07.977Z,4.00
2019-05-01T06:07:43.204Z,4.60
2019-05-01T06:10:31.113Z,7.60
2019-05-01T06:13:11.026Z,8.20
2019-05-01T06:16:05.254Z,7.30
2019-05-01T06:18:43.254Z,6.90
2019-05-01T06:21:19.893Z,6.10
2019-05-01T06:24:07.714Z,10.00
2019-05-01T06:26:37.756Z,9.90
2019-05-01T06:29:06.405Z,10.30
2019-05-01T06:31:34.976Z,9.30
2019-05-01T06:34:03.369Z,10.30
2019-05-01T06:36:32.021Z,9.00
2019-05-01T06:39:01.007Z,8.70
2019-05-01T06:41:39.316Z,7.00
2019-05-01T06:44:33.568Z,7.30
2019-05-01T06:47:17.753Z,6.90
2019-05-01T06:50:08.498Z,4.90
2019-05-01T06:52:38.670Z,6.30
2019-05-01T06:55:07.125Z,6.80
2019-05-01T06:57:38.288Z,5.90
2019-05-01T07:00:09.433Z,6.00
2019-05-01T07:02:37.423Z,5.20
2019-05-01T07:05:08.963Z,6.10
2019-05-01T07:07:37.563Z,6.90
2019-05-01T07:10:06.182Z,8.60
2019-05-01T07:12:35.053Z,8.50
2019-05-01T07:15:05.570Z,9.60
2019-05-01T07:17:33.319Z,8.00
2019-05-01T07:20:16.791Z,8.90
2019-05-01T07:22:45.797Z,8.90
2019-05-01T07:25:13.814Z,8.60
2019-05-01T07:27:44.226Z,9.30
2019-05-01T07:30:25.566Z,11.10
2019-05-01T07:32:54.188Z,11.20
2019-05-01T07:35:22.855Z,10.10
2019-05-01T07:37:51.026Z,9.10
2019-05-01T07:40:22.113Z,10.10
2019-05-01T07:42:55.076Z,9.30
2019-05-01T07:45:43.478Z,10.30
2019-05-01T07:48:16.662Z,8.40
2019-05-01T07:50:44.364Z,9.90
2019-05-01T07:53:11.808Z,9.60
2019-05-01T07:55:39.011Z,6.70
2019-05-01T07:58:10.376Z,7.40
2019-05-01T08:00:45.812Z,10.80
2019-05-01T08:03:14.540Z,11.10
2019-05-01T08:05:45.418Z,11.70
2019-05-01T08:08:13.528Z,14.30
2019-05-01T08:10:41.808Z,18.20
2019-05-01T08:13:08.851Z,17.80
2019-05-01T08:15:36.807Z,19.00
2019-05-01T08:18:14.220Z,19.00
2019-05-01T08:20:45.730Z,18.50
2019-05-01T08:23:14.675Z,16.70
2019-05-01T08:25:42.886Z,18.90
2019-05-01T08:28:16.883Z,19.20
2019-05-01T08:31:13.570Z,19.20
2019-05-01T08:34:01.406Z,18.00
2019-05-01T08:36:30.383Z,17.60
2019-05-01T08:38:57.653Z,21.00
2019-05-01T08:41:27.159Z,21.00
2019-05-01T08:43:55.902Z,22.30
2019-05-01T08:46:46.874Z,21.00
2019-05-01T08:49:49.476Z,20.20
2019-05-01T08:52:15.409Z,16.40
2019-05-01T08:54:43.477Z,12.40
2019-05-01T08:57:11.832Z,9.70
2019-05-01T08:59:39.923Z,8.40
2019-05-01T09:02:09.830Z,4.50
2019-05-01T09:04:38.132Z,3.50
2019-05-01T09:07:06.613Z,1.20
2019-05-01T09:09:34.780Z,1.40
2019-05-01T09:12:02.057Z,1.00
2019-05-01T09:14:29.861Z,1.00
2019-05-01T09:16:59.135Z,1.00
2019-05-01T09:19:27.433Z,1.00
2019-05-01T09:21:55.762Z,1.00
2019-05-01T09:24:27.949Z,1.20
2019-05-01T09:27:18.834Z,1.10
2019-05-01T09:29:52.854Z,1.30
2019-05-01T09:32:27.447Z,1.30
2019-05-01T09:34:58.416Z,1.20
2019-05-01T09:37:26.607Z,1.90
2019-05-01T09:39:54.761Z,5.60
2019-05-01T09:42:23.653Z,6.50
2019-05-01T09:44:50.766Z,7.50
2019-05-01T09:47:18.805Z,7.60
2019-05-01T09:49:48.825Z,6.50
2019-05-01T09:52:45.054Z,4.10
2019-05-01T09:55:23.182Z,1.50
2019-05-01T09:57:49.536Z,1.00
2019-05-01T10:00:25.608Z,1.00
2019-05-01T10:02:54.731Z,1.00
2019-05-01T10:05:29.082Z,1.40
2019-05-01T10:07:54.657Z,4.30
2019-05-01T10:10:24.854Z,3.60
2019-05-01T10:12:52.538Z,1.50
2019-05-01T10:15:24.830Z,1.70
2019-05-01T10:17:53.071Z,1.00
2019-05-01T10:20:21.442Z,1.00
2019-05-01T10:22:50.545Z,1.00
2019-05-01T10:25:22.327Z,1.00
2019-05-01T10:27:56.499Z,1.00
2019-05-01T10:30:37.555Z,1.00
2019-05-01T10:33:10.900Z,1.00
2019-05-01T10:36:01.075Z,1.00
2019-05-01T10:38:28.851Z,1.00
2019-05-01T10:40:56.615Z,1.00
2019-05-01T10:43:27.676Z,1.00
2019-05-01T10:45:56.530Z,1.00
2019-05-01T10:48:25.324Z,1.00
2019-05-01T10:50:52.474Z,1.00
2019-05-01T10:53:19.740Z,1.00
2019-05-01T10:55:46.962Z,1.00
2019-05-01T10:58:20.329Z,1.00
2019-05-01T11:00:51.587Z,1.00
2019-05-01T11:03:23.387Z,1.00
2019-05-01T11:05:56.065Z,1.00
2019-05-01T11:08:22.119Z,1.00
2019-05-01T11:10:50.778Z,1.00
2019-05-01T11:13:23.061Z,1.00
2019-05-01T11:15:51.586Z,1.00
2019-05-01T11:18:20.269Z,1.00
2019-05-01T11:20:48.451Z,1.00
2019-05-01T11:23:16.862Z,1.00
2019-05-01T11:25:45.585Z,1.00
2019-05-01T11:28:14.375Z,1.00
2019-05-01T11:30:42.527Z,1.00
2019-05-01T11:33:28.299Z,1.00
2019-05-01T11:36:11.739Z,1.00
2019-05-01T11:39:17.086Z,1.00
2019-05-01T11:41:51.238Z,1.00
2019-05-01T11:44:21.030Z,1.00
2019-05-01T11:46:54.182Z,1.00
2019-05-01T11:49:22.847Z,1.00
2019-05-01T11:51:51.596Z,1.00
2019-05-01T11:54:21.007Z,1.00
2019-05-01T11:56:50.675Z,1.00
2019-05-01T11:59:18.559Z,1.00
2019-05-01T12:01:46.018Z,1.00
2019-05-01T12:04:14.599Z,1.00
2019-05-01T12:06:42.859Z,1.00
2019-05-01T12:09:15.809Z,1.00
2019-05-01T12:11:46.506Z,1.00
2019-05-01T12:14:14.972Z,1.00
2019-05-01T12:17:01.611Z,1.00
2019-05-01T12:19:30.374Z,1.00
2019-05-01T12:21:58.950Z,1.00
2019-05-01T12:24:27.130Z,1.00
2019-05-01T12:26:55.964Z,1.00
2019-05-01T12:29:25.434Z,1.00
2019-05-01T12:31:54.307Z,1.00
2019-05-01T12:34:21.372Z,1.00
2019-05-01T12:36:52.361Z,1.00
2019-05-01T12:39:21.514Z,1.00
2019-05-01T12:41:54.207Z,1.00
2019-05-01T12:44:22.271Z,1.00
2019-05-01T12:47:07.111Z,1.00
2019-05-01T12:49:35.226Z,1.00
2019-05-01T12:52:10.513Z,1.00
2019-05-01T12:54:46.891Z,1.00
2019-05-01T12:57:16.036Z,1.00
2019-05-01T12:59:47.702Z,1.00
2019-05-01T13:02:14.881Z,1.00
2019-05-01T13:04:41.971Z,1.00
2019-05-01T13:07:09.579Z,1.00
2019-05-01T13:09:36.983Z,1.00
2019-05-01T13:12:08.621Z,1.00
2019-05-01T13:14:36.597Z,1.00
2019-05-01T13:17:04.794Z,1.00
2019-05-01T13:19:33.103Z,1.00
2019-05-01T13:22:01.162Z,1.00
2019-05-01T13:24:30.481Z,1.00
2019-05-01T13:27:13.712Z,1.00
2019-05-01T13:30:13.512Z,1.00
2019-05-01T13:32:46.901Z,1.00
2019-05-01T13:35:15.223Z,1.00
2019-05-01T13:37:42.424Z,1.00
2019-05-01T13:40:10.485Z,1.00
2019-05-01T13:42:37.650Z,1.00
2019-05-01T13:45:09.219Z,1.00
2019-05-01T13:47:37.287Z,1.00
2019-05-01T13:50:05.820Z,1.00
2019-05-01T13:52:34.545Z,1.00
2019-05-01T13:55:03.302Z,1.00
2019-05-01T13:57:31.242Z,1.00
2019-05-01T14:00:03.768Z,1.00
2019-05-01T14:02:32.200Z,1.00
2019-05-01T14:05:00.299Z,1.00
2019-05-01T14:07:29.186Z,1.00
2019-05-01T14:09:56.386Z,1.00
2019-05-01T14:12:23.646Z,1.00
2019-05-01T14:14:50.833Z,1.00
2019-05-01T14:17:18.179Z,1.00
2019-05-01T14:19:57.911Z,1.00
2019-05-01T14:22:48.650Z,1.00
2019-05-01T14:25:17.022Z,1.00
2019-05-01T14:27:48.400Z,1.00
2019-05-01T14:30:16.953Z,1.00
2019-05-01T14:32:45.034Z,1.00
2019-05-01T14:35:13.387Z,1.00
2019-05-01T14:37:45.575Z,1.00
2019-05-01T14:40:13.227Z,1.00
2019-05-01T14:42:42.584Z,1.00
2019-05-01T14:45:10.507Z,1.00
2019-05-01T14:47:42.104Z,1.00
2019-05-01T14:50:10.554Z,1.00
2019-05-01T14:52:38.538Z,1.00
2019-05-01T14:55:07.786Z,1.00
2019-05-01T14:57:37.686Z,1.00
2019-05-01T15:00:07.119Z,1.00
2019-05-01T15:02:35.274Z,1.00
2019-05-01T15:05:04.197Z,1.00
2019-05-01T15:07:42.833Z,1.00
2019-05-01T15:10:03.505Z,1.00
2019-05-01T15:12:32.526Z,1.00
2019-05-01T15:15:20.460Z,1.00
2019-05-01T15:18:05.784Z,1.00
2019-05-01T15:20:36.038Z,1.00
2019-05-01T15:23:03.598Z,1.00
2019-05-01T15:25:30.851Z,1.00
2019-05-01T15:27:58.510Z,1.00
2019-05-01T15:30:26.998Z,1.00
2019-05-01T15:32:57.737Z,1.00
2019-05-01T15:35:26.111Z,1.00
2019-05-01T15:37:56.957Z,1.00
2019-05-01T15:40:40.790Z,1.00
2019-05-01T15:43:29.167Z,1.00
2019-05-01T15:45:57.507Z,1.00
2019-05-01T15:48:26.314Z,1.00
2019-05-01T15:50:53.522Z,1.00
2019-05-01T15:53:20.674Z,1.00
2019-05-01T15:55:55.743Z,1.00
2019-05-01T15:58:22.962Z,1.00
2019-05-01T16:00:50.542Z,1.00
2019-05-01T16:03:17.913Z,1.00
2019-05-01T16:05:50.635Z,1.00
2019-05-01T16:08:19.493Z,1.00
2019-05-01T16:10:56.140Z,1.00
2019-05-01T16:13:29.264Z,1.00
2019-05-01T16:15:57.434Z,1.00
2019-05-01T16:18:25.941Z,1.00
2019-05-01T16:20:54.935Z,1.00
2019-05-01T16:23:23.352Z,1.00
2019-05-01T16:25:54.243Z,1.00
2019-05-01T16:28:21.878Z,1.00
2019-05-01T16:30:49.626Z,1.00
2019-05-01T16:33:17.143Z,1.00
2019-05-01T16:35:44.765Z,1.00
2019-05-01T16:38:23.256Z,1.00
2019-05-01T16:41:00.852Z,1.00
2019-05-01T16:43:29.225Z,1.00
2019-05-01T16:45:59.662Z,1.00
2019-05-01T16:48:28.170Z,1.00
2019-05-01T16:50:56.790Z,1.00
2019-05-01T16:53:24.954Z,1.00
2019-05-01T16:55:53.658Z,1.00
2019-05-01T16:58:22.529Z,1.00
2019-05-01T17:01:02.625Z,1.00
2019-05-01T17:03:55.094Z,1.00
2019-05-01T17:06:34.631Z,1.00
2019-05-01T17:09:15.195Z,1.00
2019-05-01T17:11:42.972Z,1.00
2019-05-01T17:14:10.653Z,1.00
2019-05-01T17:16:39.310Z,1.00
2019-05-01T17:19:08.154Z,1.00
2019-05-01T17:21:36.478Z,1.00
2019-05-01T17:24:04.894Z,1.00
2019-05-01T17:26:33.130Z,1.00
2019-05-01T17:29:02.215Z,1.00
2019-05-01T17:31:33.309Z,1.00
2019-05-01T17:34:01.852Z,1.00
2019-05-01T17:36:29.722Z,1.00
2019-05-01T17:38:56.777Z,1.00
2019-05-01T17:41:27.015Z,1.00
2019-05-01T17:43:56.606Z,1.00
2019-05-01T17:46:23.255Z,1.00
2019-05-01T17:48:51.674Z,1.00
2019-05-01T17:51:20.350Z,1.00
2019-05-01T17:53:48.748Z,1.00
2019-05-01T17:56:23.530Z,1.00
2019-05-01T17:58:48.042Z,1.00
2019-05-01T18:01:33.390Z,1.00
2019-05-01T18:04:16.706Z,1.00
2019-05-01T18:06:48.090Z,1.00
2019-05-01T18:09:16.727Z,1.00
2019-05-01T18:11:47.261Z,1.00
2019-05-01T18:14:13.285Z,1.00
2019-05-01T18:16:46.353Z,1.00
2019-05-01T18:19:14.266Z,1.00
2019-05-01T18:21:46.598Z,1.00
2019-05-01T18:24:44.869Z,1.00
2019-05-01T18:27:38.979Z,1.00
2019-05-01T18:30:20.129Z,1.00
2019-05-01T18:32:51.942Z,1.00
2019-05-01T18:35:16.221Z,1.00
2019-05-01T18:37:51.215Z,1.00
2019-05-01T18:40:23.843Z,1.00
2019-05-01T18:42:51.417Z,1.00
2019-05-01T18:45:47.814Z,1.00
2019-05-01T18:48:15.669Z,1.00
2019-05-01T18:50:43.163Z,1.00
2019-05-01T18:53:12.562Z,1.00
2019-05-01T18:55:42.518Z,1.00
2019-05-01T18:58:10.818Z,1.00
2019-05-01T19:00:39.239Z,1.00
2019-05-01T19:03:07.699Z,1.00
2019-05-01T19:05:35.987Z,1.00
2019-05-01T19:08:04.622Z,1.00
2019-05-01T19:10:33.000Z,1.00
2019-05-01T19:13:01.341Z,1.00
2019-05-01T19:15:28.483Z,1.00
2019-05-01T19:17:55.906Z,1.00
2019-05-01T19:20:23.087Z,1.00
2019-05-01T19:22:50.256Z,1.00
2019-05-01T19:25:18.448Z,1.00
2019-05-01T19:27:51.311Z,1.00
2019-05-01T19:30:20.689Z,1.00
2019-05-01T19:32:48.875Z,1.00
2019-05-01T19:35:17.774Z,1.00
2019-05-01T19:37:45.927Z,1.00
2019-05-01T19:40:14.298Z,1.00
2019-05-01T19:42:43.213Z,1.00
2019-05-01T19:45:11.631Z,1.00
2019-05-01T19:47:39.783Z,1.00
2019-05-01T19:50:09.620Z,1.00
2019-05-01T19:52:37.932Z,1.00
2019-05-01T19:55:07.773Z,1.00
2019-05-01T19:57:34.910Z,1.00
2019-05-01T20:00:02.400Z,1.00
2019-05-01T20:02:29.817Z,1.00
2019-05-01T20:04:57.547Z,1.00
2019-05-01T20:07:26.168Z,1.00
2019-05-01T20:09:57.095Z,1.00
2019-05-01T20:12:25.680Z,1.00
2019-05-01T20:14:54.227Z,1.00
2019-05-01T20:17:22.506Z,1.00
2019-05-01T20:19:51.447Z,1.00
2019-05-01T20:22:20.321Z,1.00
2019-05-01T20:24:48.489Z,1.00
2019-05-01T20:27:16.644Z,1.00
2019-05-01T20:29:44.334Z,1.00
2019-05-01T20:32:11.990Z,1.00
2019-05-01T20:34:40.737Z,1.00
2019-05-01T20:37:08.764Z,1.00
2019-05-01T20:39:37.334Z,1.00
2019-05-01T20:42:05.841Z,1.00
2019-05-01T20:44:34.637Z,1.00
2019-05-01T20:47:03.981Z,1.00
2019-05-01T20:49:36.465Z,1.00
2019-05-01T20:52:03.836Z,1.00
2019-05-01T20:54:31.218Z,1.00
2019-05-01T20:57:03.468Z,1.00
2019-05-01T20:59:35.254Z,1.00
2019-05-01T21:02:07.678Z,1.00
2019-05-01T21:04:57.026Z,1.00
2019-05-01T21:07:30.597Z,1.00
2019-05-01T21:10:00.391Z,1.00
2019-05-01T21:12:28.354Z,1.00
2019-05-01T21:14:56.232Z,1.00
2019-05-01T21:17:27.863Z,1.00
2019-05-01T21:19:55.036Z,1.00
2019-05-01T21:22:23.429Z,1.00
2019-05-01T21:24:53.266Z,1.00
2019-05-01T21:27:21.855Z,1.00
2019-05-01T21:29:50.543Z,1.00
2019-05-01T21:32:23.603Z,1.00
2019-05-01T21:34:49.185Z,1.00
2019-05-01T21:37:17.765Z,1.00
2019-05-01T21:39:46.315Z,1.00
2019-05-01T21:42:15.947Z,1.00
2019-05-01T21:44:44.505Z,1.00
2019-05-01T21:47:13.746Z,1.00
2019-05-01T21:49:42.817Z,1.00
2019-05-01T21:52:09.942Z,1.00
2019-05-01T21:54:36.954Z,1.00
2019-05-01T21:57:05.306Z,1.00
2019-05-01T21:59:35.353Z,1.00
2019-05-01T22:02:05.498Z,1.00
2019-05-01T22:04:34.166Z,1.00
2019-05-01T22:07:03.040Z,1.00
2019-05-01T22:09:31.843Z,1.00
2019-05-01T22:12:00.452Z,1.00
2019-05-01T22:14:43.296Z,1.00
2019-05-01T22:17:18.831Z,1.00
2019-05-01T22:19:48.958Z,1.00
2019-05-01T22:22:31.442Z,1.00
2019-05-01T22:25:07.941Z,1.00
2019-05-01T22:27:39.757Z,1.00
2019-05-01T22:30:27.349Z,1.00
2019-05-01T22:32:56.218Z,1.00
2019-05-01T22:35:26.204Z,1.00
2019-05-01T22:37:54.316Z,1.00
2019-05-01T22:40:33.042Z,1.00
2019-05-01T22:43:01.027Z,1.00
2019-05-01T22:45:37.185Z,1.00
2019-05-01T22:48:10.527Z,1.00
2019-05-01T22:50:39.370Z,1.00
2019-05-01T22:53:12.504Z,1.00
2019-05-01T22:55:37.919Z,1.00
2019-05-01T22:58:06.205Z,1.00
2019-05-01T23:00:44.350Z,1.00
2019-05-01T23:03:20.671Z,1.00
2019-05-01T23:05:49.107Z,1.00
2019-05-01T23:08:17.652Z,1.00
2019-05-01T23:10:47.030Z,1.00
2019-05-01T23:13:16.698Z,1.00
2019-05-01T23:15:44.174Z,1.00
2019-05-01T23:18:15.374Z,1.00
2019-05-01T23:20:42.661Z,1.00
2019-05-01T23:23:10.315Z,1.00
2019-05-01T23:25:41.192Z,1.00
2019-05-01T23:28:09.230Z,1.00
2019-05-01T23:30:37.815Z,1.00
2019-05-01T23:33:07.926Z,1.00
2019-05-01T23:35:36.115Z,1.00
2019-05-01T23:38:04.243Z,1.00
2019-05-01T23:40:32.771Z,1.00
2019-05-01T23:43:01.186Z,1.00
2019-05-01T23:45:28.350Z,1.00
2019-05-01T23:47:55.318Z,1.00
2019-05-01T23:50:22.578Z,1.00
2019-05-01T23:52:49.636Z,1.00
2019-05-01T23:55:17.495Z,1.00
2019-05-01T23:57:45.650Z,1.00
